Time;durP1;ratioP1;P1;durP2;ratioP2;P2;SDS_P1;SDS_P2;PMS_P1;PMS_P2;Temp;Humidity;BMP_temperature;BMP_pressure;BME280_temperature;BME280_humidity;BME280_pressure;Samples;Min_cycle;Max_cycle;Signal;HPM_P1;HPM_P2
2021/07/15 00:01:41;;;;;;;26.13;12.98;;;;;;;21.56;70.65;97952.91;4916310;29;20503;-76
2021/07/15 00:04:07;;;;;;;25.00;12.60;;;;;;;21.56;70.74;97950.13;4931941;29;20086;-76
2021/07/15 00:06:33;;;;;;;25.15;12.32;;;;;;;21.61;70.77;97973.25;4931827;29;20468;-76
2021/07/15 00:08:58;;;;;;;24.80;12.50;;;;;;;21.62;70.68;97972.91;4931101;29;20857;-76
2021/07/15 00:11:26;;;;;;;24.23;12.13;;;;;;;21.64;70.56;97978.09;4931903;29;20115;-76
2021/07/15 00:13:52;;;;;;;22.92;13.43;;;;;;;21.65;70.54;97983.31;4916387;29;20740;-76
2021/07/15 00:16:18;;;;;;;24.35;12.82;;;;;;;21.63;70.50;97970.91;4930098;29;20118;-76
2021/07/15 00:18:47;;;;;;;25.02;12.35;;;;;;;21.63;70.61;97960.56;4932127;29;20112;-76
2021/07/15 00:21:17;;;;;;;22.35;12.60;;;;;;;21.65;70.67;97957.38;4933009;29;20106;-76
2021/07/15 00:23:44;;;;;;;24.83;14.10;;;;;;;21.67;70.62;97969.78;4931687;29;20023;-76
2021/07/15 00:26:09;;;;;;;29.60;13.68;;;;;;;21.63;70.43;97974.53;4931492;29;20059;-76
2021/07/15 00:28:39;;;;;;;24.38;13.40;;;;;;;21.63;70.34;97973.69;4932550;29;20122;-76
2021/07/15 00:31:06;;;;;;;22.88;13.43;;;;;;;21.59;70.50;97973.66;4933253;29;20421;-76
2021/07/15 00:33:31;;;;;;;21.45;12.77;;;;;;;21.55;70.27;97976.41;4938031;29;20078;-76
2021/07/15 00:35:57;;;;;;;29.58;13.82;;;;;;;21.52;70.34;97974.38;4936209;29;20423;-76
2021/07/15 00:38:24;;;;;;;27.40;12.30;;;;;;;21.51;70.42;97986.72;4934589;29;20031;-76
2021/07/15 00:40:49;;;;;;;25.48;12.77;;;;;;;21.50;70.36;97984.31;4941821;29;20051;-76
2021/07/15 00:43:15;;;;;;;26.08;13.95;;;;;;;21.48;70.21;97983.88;4938869;29;20106;-76
2021/07/15 00:45:40;;;;;;;31.63;13.90;;;;;;;21.44;70.34;97977.44;4940722;28;20138;-76
2021/07/15 00:48:06;;;;;;;26.52;13.85;;;;;;;21.35;70.37;97992.53;4941709;29;20503;-76
2021/07/15 00:50:32;;;;;;;29.08;14.18;;;;;;;21.31;70.39;97988.06;4941032;28;20105;-76
2021/07/15 00:52:58;;;;;;;28.10;13.75;;;;;;;21.27;70.19;97985.25;4944413;29;20129;-75
2021/07/15 00:55:23;;;;;;;26.30;13.57;;;;;;;21.25;70.68;97990.41;4946195;28;20019;-76
2021/07/15 00:57:49;;;;;;;29.95;14.25;;;;;;;21.23;70.73;97989.97;4947527;29;20024;-76
2021/07/15 01:00:16;;;;;;;27.42;14.75;;;;;;;21.20;70.75;97990.72;4943324;28;20376;-76
2021/07/15 01:02:42;;;;;;;27.60;14.50;;;;;;;21.14;70.92;97997.81;4923693;29;20035;-76
2021/07/15 01:05:14;;;;;;;26.95;14.70;;;;;;;21.07;70.67;98006.91;4942288;29;20034;-77
2021/07/15 01:07:39;;;;;;;26.40;14.38;;;;;;;21.06;71.00;98011.66;4924652;29;20388;-76
2021/07/15 01:10:07;;;;;;;36.45;15.68;;;;;;;21.05;71.04;98012.06;4944885;29;20024;-77
2021/07/15 01:12:48;;;;;;;30.08;14.00;;;;;;;21.00;70.81;98012.38;4945474;29;20050;-76
2021/07/15 01:15:17;;;;;;;30.25;14.10;;;;;;;20.97;71.01;98031.47;4946012;28;20031;-76
2021/07/15 01:18:10;;;;;;;33.47;14.80;;;;;;;20.92;71.16;98031.00;4927588;29;20031;-76
2021/07/15 01:20:45;;;;;;;23.35;13.60;;;;;;;20.86;71.41;98036.06;4926382;29;20023;-76
2021/07/15 01:23:42;;;;;;;28.10;14.90;;;;;;;20.83;71.15;98031.25;4945535;29;20043;-76
2021/07/15 01:26:10;;;;;;;29.33;13.98;;;;;;;20.82;71.41;98018.50;4948904;29;20068;-76
2021/07/15 01:29:03;;;;;;;26.75;12.98;;;;;;;20.75;71.38;98018.38;4947670;28;20553;-77
2021/07/15 01:31:33;;;;;;;29.05;13.82;;;;;;;20.70;71.63;98008.34;4945205;29;20035;-77
2021/07/15 01:34:01;;;;;;;32.03;13.73;;;;;;;20.66;72.04;98011.09;4943721;29;20555;-77
2021/07/15 01:36:30;;;;;;;36.33;12.38;;;;;;;20.60;71.74;98006.19;4947132;28;20027;-76
2021/07/15 01:39:03;;;;;;;25.73;12.82;;;;;;;20.56;71.78;98006.16;4943791;29;20031;-76
2021/07/15 01:41:31;;;;;;;28.55;11.82;;;;;;;20.55;71.81;98009.31;4922018;29;20058;-76
2021/07/15 01:44:24;;;;;;;27.23;12.55;;;;;;;20.58;72.05;98016.94;4937826;29;20034;-76
2021/07/15 01:46:51;;;;;;;24.90;12.70;;;;;;;20.57;72.03;98026.47;4932816;29;20071;-77
2021/07/15 01:49:17;;;;;;;21.85;11.73;;;;;;;20.56;72.27;98019.28;4934365;29;20425;-76
2021/07/15 01:51:43;;;;;;;26.95;12.90;;;;;;;20.58;72.16;98014.94;4934618;29;20027;-76
2021/07/15 01:54:09;;;;;;;24.65;11.95;;;;;;;20.59;72.17;98008.19;4933833;29;20027;-76
2021/07/15 01:56:38;;;;;;;24.20;12.23;;;;;;;20.59;72.30;98008.19;4933974;29;20060;-76
2021/07/15 01:59:07;;;;;;;26.40;11.77;;;;;;;20.62;71.91;98017.75;4918811;29;20034;-76
2021/07/15 02:01:34;;;;;;;;;;;;;;;20.66;72.17;98007.47;4936014;29;20083;-76
2021/07/15 02:04:02;;;;;;;24.70;12.18;;;;;;;20.67;72.20;98011.88;4934079;29;20029;-77
2021/07/15 02:06:30;;;;;;;26.30;11.73;;;;;;;20.64;71.88;98004.25;4933738;29;20043;-76
2021/07/15 02:08:59;;;;;;;23.63;11.68;;;;;;;20.64;72.18;97993.13;4933645;29;20086;-76
2021/07/15 02:11:32;;;;;;;23.10;11.48;;;;;;;20.64;72.02;97984.75;4934352;29;20559;-76
2021/07/15 02:13:58;;;;;;;24.25;11.27;;;;;;;20.68;72.28;97988.41;4934120;29;20030;-76
2021/07/15 02:16:23;;;;;;;24.23;11.65;;;;;;;20.73;72.35;97987.28;4917824;29;20039;-77
2021/07/15 02:18:49;;;;;;;25.25;11.55;;;;;;;20.73;72.07;97990.09;4934243;29;20492;-76
2021/07/15 02:21:16;;;;;;;27.20;10.95;;;;;;;20.74;72.25;97994.47;4930713;29;20028;-77
2021/07/15 02:23:43;;;;;;;23.95;11.30;;;;;;;20.74;72.03;97998.06;4931354;29;20102;-77
2021/07/15 02:26:11;;;;;;;25.98;11.77;;;;;;;20.74;71.98;98009.19;4933035;29;20020;-77
2021/07/15 02:28:36;;;;;;;19.20;10.63;;;;;;;20.79;72.06;98010.88;4933294;29;20035;-77
2021/07/15 02:31:14;;;;;;;25.60;11.23;;;;;;;20.84;72.10;98016.13;4935942;29;20016;-76
2021/07/15 02:33:47;;;;;;;21.90;12.40;;;;;;;20.87;72.26;98017.38;4920023;29;20431;-76
2021/07/15 02:36:13;;;;;;;27.60;12.35;;;;;;;20.90;71.93;98002.69;4929888;29;20492;-77
2021/07/15 02:38:41;;;;;;;22.55;10.70;;;;;;;20.90;72.08;97997.13;4933810;29;20339;-77
2021/07/15 02:41:06;;;;;;;26.25;11.20;;;;;;;20.86;71.80;97996.25;4935326;29;20480;-76
2021/07/15 02:43:31;;;;;;;19.90;10.07;;;;;;;20.87;71.94;97983.94;4934546;29;20039;-77
2021/07/15 02:45:57;;;;;;;22.83;11.05;;;;;;;20.87;71.84;97983.94;4931688;29;20076;-77
2021/07/15 02:48:23;;;;;;;24.27;10.93;;;;;;;20.89;71.97;97987.94;4934055;29;20035;-76
2021/07/15 02:50:48;;;;;;;23.88;10.57;;;;;;;20.90;71.64;97975.59;4933074;29;20030;-76
2021/07/15 02:53:14;;;;;;;26.17;10.70;;;;;;;20.88;71.74;97961.25;4931262;29;20028;-76
2021/07/15 02:55:48;;;;;;;22.17;12.52;;;;;;;20.87;71.93;97959.63;4932628;29;20028;-76
2021/07/15 02:58:19;;;;;;;23.42;11.98;;;;;;;20.90;71.63;97952.53;4933851;29;20103;-76
2021/07/15 03:00:56;;;;;;;26.95;13.48;;;;;;;20.91;71.75;97945.78;4931240;29;20031;-76
2021/07/15 03:03:51;;;;;;;24.17;13.57;;;;;;;20.94;71.72;97945.81;4934112;29;20118;-76
2021/07/15 03:06:33;;;;;;;23.65;13.38;;;;;;;20.95;71.53;97958.56;4930564;29;20028;-77
2021/07/15 03:09:02;;;;;;;28.40;12.40;;;;;;;20.96;71.71;97965.75;4921224;29;20030;-77
2021/07/15 03:11:39;;;;;;;25.90;14.38;;;;;;;20.94;71.39;97979.25;4933144;29;20032;-76
2021/07/15 03:14:06;;;;;;;31.80;14.55;;;;;;;20.95;71.46;98003.16;4932939;29;20034;-76
2021/07/15 03:16:32;;;;;;;26.88;14.68;;;;;;;20.93;71.32;98032.59;4933040;29;20043;-76
2021/07/15 03:19:01;;;;;;;26.65;14.80;;;;;;;20.85;71.45;98047.59;4933463;29;20395;-76
2021/07/15 03:21:27;;;;;;;26.08;14.95;;;;;;;20.75;71.25;98030.31;4917185;29;20648;-77
2021/07/15 03:23:56;;;;;;;31.13;15.68;;;;;;;20.70;71.32;98038.19;4933143;29;20031;-76
2021/07/15 03:26:23;;;;;;;25.88;15.38;;;;;;;20.61;71.26;98030.91;4933776;29;20055;-76
2021/07/15 03:28:51;;;;;;;29.10;13.68;;;;;;;20.54;71.29;98014.06;4933361;29;20016;-76
2021/07/15 03:31:17;;;;;;;24.48;13.88;;;;;;;20.51;71.30;98017.59;4932012;29;20024;-77
2021/07/15 03:33:44;;;;;;;27.40;13.82;;;;;;;20.46;71.27;98024.31;4932014;29;20157;-77
2021/07/15 03:36:11;;;;;;;25.30;12.20;;;;;;;20.44;71.30;98028.63;4930510;29;20048;-76
2021/07/15 03:38:41;;;;;;;24.23;12.20;;;;;;;20.39;71.46;98018.63;4932267;29;20114;-77
2021/07/15 03:41:08;;;;;;;25.08;12.13;;;;;;;20.34;71.56;98022.53;4930677;29;20032;-76
2021/07/15 03:43:35;;;;;;;24.40;12.27;;;;;;;20.33;71.43;98025.66;4933165;29;20046;-76
2021/07/15 03:46:02;;;;;;;22.50;12.15;;;;;;;20.30;71.40;98018.88;4931718;29;21304;-75
2021/07/15 03:48:29;;;;;;;26.00;11.52;;;;;;;20.25;71.60;98024.75;4932804;29;20047;-75
2021/07/15 03:51:00;;;;;;;19.65;11.65;;;;;;;20.21;71.46;98032.25;4932441;29;20063;-76
2021/07/15 03:53:26;;;;;;;26.83;10.77;;;;;;;20.15;71.75;98033.72;4931328;29;20024;-76
2021/07/15 03:55:55;;;;;;;20.92;11.02;;;;;;;20.10;71.58;98036.81;4932153;29;20494;-77
2021/07/15 03:58:21;;;;;;;23.38;11.68;;;;;;;20.08;71.64;98037.19;4932083;29;20032;-76
2021/07/15 04:00:48;;;;;;;28.17;12.15;;;;;;;20.06;71.80;98031.97;4931224;29;20370;-76
2021/07/15 04:03:21;;;;;;;22.95;12.38;;;;;;;20.07;71.92;98032.78;4933496;29;20496;-76
2021/07/15 04:05:50;;;;;;;23.10;11.50;;;;;;;20.05;71.75;98038.72;4930056;29;20429;-76
2021/07/15 04:08:18;;;;;;;23.85;11.73;;;;;;;20.05;71.83;98019.22;4932904;29;20030;-76
2021/07/15 04:10:45;;;;;;;18.85;10.82;;;;;;;20.07;71.86;98021.66;4930174;29;20027;-76
2021/07/15 04:13:13;;;;;;;22.60;10.88;;;;;;;20.11;71.88;98011.41;4931752;29;20062;-77
2021/07/15 04:15:51;;;;;;;22.63;10.48;;;;;;;20.16;71.78;98007.50;4932033;29;20056;-77
2021/07/15 04:18:19;;;;;;;24.20;10.93;;;;;;;20.19;71.87;98003.97;4931585;29;20063;-76
2021/07/15 04:20:45;;;;;;;23.73;11.05;;;;;;;20.21;71.89;98010.75;4916851;29;20039;-76
2021/07/15 04:23:12;;;;;;;23.40;10.90;;;;;;;20.22;71.68;98006.00;4932315;29;20030;-76
2021/07/15 04:25:38;;;;;;;21.73;10.65;;;;;;;20.20;71.71;97998.00;4916528;29;20042;-77
2021/07/15 04:28:04;;;;;;;18.27;11.15;;;;;;;20.19;71.64;97990.03;4931469;29;20067;-76
2021/07/15 04:30:30;;;;;;;25.27;11.82;;;;;;;20.19;71.76;97979.69;4933138;29;20039;-77
2021/07/15 04:33:03;;;;;;;24.70;11.73;;;;;;;20.21;71.62;97982.13;4934130;29;20063;-76
2021/07/15 04:35:31;;;;;;;22.70;12.43;;;;;;;20.28;71.87;97984.22;4931191;29;20042;-76
2021/07/15 04:37:58;;;;;;;24.00;12.60;;;;;;;20.33;72.26;97972.75;4931073;29;20076;-76
2021/07/15 04:40:25;;;;;;;18.52;11.43;;;;;;;20.39;71.81;97990.75;4930442;29;20055;-76
2021/07/15 04:42:53;;;;;;;25.88;14.52;;;;;;;20.42;71.61;97995.59;4932801;29;20039;-76
2021/07/15 04:45:25;;;;;;;37.30;20.52;;;;;;;20.45;71.90;97994.03;4933837;29;20074;-76
2021/07/15 04:47:51;;;;;;;44.42;22.10;;;;;;;20.46;71.90;98004.81;4932617;29;20039;-76
2021/07/15 04:50:19;;;;;;;31.50;17.30;;;;;;;20.46;71.69;98021.53;4928326;29;20032;-76
2021/07/15 04:52:46;;;;;;;42.85;22.02;;;;;;;20.38;71.82;98023.38;4928891;29;20452;-76
2021/07/15 04:55:13;;;;;;;37.83;18.77;;;;;;;20.41;71.92;98023.78;4931418;29;20111;-76
2021/07/15 04:57:40;;;;;;;34.47;18.50;;;;;;;20.38;71.85;98026.16;4916477;29;20032;-76
2021/07/15 05:00:11;;;;;;;27.75;14.35;;;;;;;20.34;71.95;98019.75;4933275;29;20035;-77
2021/07/15 05:02:37;;;;;;;25.52;14.55;;;;;;;20.34;72.02;98022.53;4914739;29;20429;-76
2021/07/15 05:05:07;;;;;;;22.00;11.48;;;;;;;20.37;72.14;98021.78;4932139;29;20024;-76
2021/07/15 05:07:34;;;;;;;27.27;13.63;;;;;;;20.38;71.99;98014.22;4932505;29;20186;-77
2021/07/15 05:10:00;;;;;;;23.80;12.38;;;;;;;20.36;72.10;98024.94;4933031;29;20016;-77
2021/07/15 05:12:25;;;;;;;22.40;12.63;;;;;;;20.35;71.80;98010.22;4931325;29;20042;-76
2021/07/15 05:14:52;;;;;;;20.52;11.35;;;;;;;20.35;72.05;98009.38;4932662;29;20469;-76
2021/07/15 05:17:18;;;;;;;17.88;11.18;;;;;;;20.36;72.01;98013.78;4932641;29;20067;-76
2021/07/15 05:19:43;;;;;;;20.73;10.85;;;;;;;20.37;72.17;98029.31;4936850;29;20040;-76
2021/07/15 05:22:08;;;;;;;23.15;10.73;;;;;;;20.38;72.10;98030.94;4934014;29;20050;-77
2021/07/15 05:24:34;;;;;;;18.02;11.07;;;;;;;20.35;72.34;98037.25;4936660;29;20039;-77
2021/07/15 05:27:00;;;;;;;15.75;9.95;;;;;;;20.34;72.31;98033.66;4935926;29;20023;-77
2021/07/15 05:29:26;;;;;;;19.30;10.15;;;;;;;20.35;72.27;98035.28;4918726;29;20443;-77
2021/07/15 05:31:51;;;;;;;17.70;9.68;;;;;;;20.36;72.22;98041.63;4935912;29;20126;-76
2021/07/15 05:34:19;;;;;;;20.55;10.70;;;;;;;20.39;72.56;98038.09;4936634;29;20055;-76
2021/07/15 05:36:44;;;;;;;16.92;9.35;;;;;;;20.45;72.45;98028.28;4934565;29;20067;-77
2021/07/15 05:39:10;;;;;;;17.48;9.32;;;;;;;20.54;72.47;98030.78;4935919;29;20024;-77
2021/07/15 05:41:35;;;;;;;18.63;9.60;;;;;;;20.57;72.51;98021.69;4918305;29;20087;-77
2021/07/15 05:44:01;;;;;;;16.63;10.02;;;;;;;20.62;72.58;98024.16;4936187;29;20414;-77
2021/07/15 05:46:26;;;;;;;16.35;9.27;;;;;;;20.66;72.40;98021.41;4936206;29;20552;-76
2021/07/15 05:48:51;;;;;;;16.48;9.77;;;;;;;20.68;72.54;98021.84;4936708;29;20445;-76
2021/07/15 05:51:18;;;;;;;21.77;12.23;;;;;;;20.70;72.46;98013.13;4936652;29;20112;-75
2021/07/15 05:53:43;;;;;;;20.42;11.27;;;;;;;20.75;72.52;98013.59;4935538;29;20027;-76
2021/07/15 05:56:09;;;;;;;32.92;16.80;;;;;;;20.77;72.45;98018.84;4936100;29;20059;-76
2021/07/15 05:58:34;;;;;;;269.27;104.45;;;;;;;20.79;72.52;98022.84;4935689;29;20027;-75
2021/07/15 06:00:59;;;;;;;297.38;148.73;;;;;;;20.81;72.58;98023.28;4924191;29;20023;-78
2021/07/15 06:03:25;;;;;;;143.95;94.38;;;;;;;20.84;72.53;98024.50;4935734;29;20079;-74
2021/07/15 06:05:50;;;;;;;40.42;28.85;;;;;;;20.87;72.66;98032.09;4936116;29;20019;-76
2021/07/15 06:08:15;;;;;;;23.55;15.45;;;;;;;20.88;72.69;98025.34;4935083;29;20043;-76
2021/07/15 06:10:41;;;;;;;21.17;12.63;;;;;;;20.96;72.76;98037.44;4937732;29;20023;-76
2021/07/15 06:13:06;;;;;;;22.00;12.32;;;;;;;20.96;72.68;98048.56;4935244;29;20016;-77
2021/07/15 06:15:32;;;;;;;21.77;12.95;;;;;;;20.99;72.74;98050.59;4935645;29;20385;-76
2021/07/15 06:17:57;;;;;;;20.30;11.52;;;;;;;21.02;72.64;98046.25;4935312;29;20036;-77
2021/07/15 06:20:23;;;;;;;17.27;11.23;;;;;;;21.06;72.88;98053.47;4935431;29;20023;-76
2021/07/15 06:22:49;;;;;;;20.27;10.57;;;;;;;21.10;72.48;98064.69;4935688;29;20015;-77
2021/07/15 06:25:15;;;;;;;16.50;10.07;;;;;;;21.15;72.82;98066.34;4927318;29;20020;-77
2021/07/15 06:27:41;;;;;;;18.15;9.90;;;;;;;21.14;72.93;98087.88;4934987;29;20090;-76
2021/07/15 06:30:09;;;;;;;20.33;10.27;;;;;;;21.13;72.67;98091.84;4934325;29;20039;-77
2021/07/15 06:32:35;;;;;;;13.40;8.70;;;;;;;21.16;72.58;98087.47;4935372;29;20037;-76
2021/07/15 06:35:02;;;;;;;15.80;8.40;;;;;;;21.17;72.36;98080.72;4933443;29;20254;-78
2021/07/15 06:37:33;;;;;;;26.30;10.88;;;;;;;21.17;72.33;98087.13;4934330;29;20042;-77
2021/07/15 06:40:01;;;;;;;50.13;18.30;;;;;;;21.18;72.57;98099.88;4934502;29;20033;-77
2021/07/15 06:42:27;;;;;;;32.58;15.10;;;;;;;21.20;72.54;98108.63;4933032;29;20020;-77
2021/07/15 06:44:53;;;;;;;20.75;10.50;;;;;;;21.25;72.51;98099.16;4934359;29;20024;-76
2021/07/15 06:47:18;;;;;;;15.77;9.15;;;;;;;21.24;72.55;98097.56;4944333;29;20052;-77
2021/07/15 06:49:43;;;;;;;15.57;8.65;;;;;;;21.25;72.42;98105.53;4945898;29;20432;-76
2021/07/15 06:52:09;;;;;;;19.83;12.35;;;;;;;21.25;72.44;98099.94;4947785;28;20024;-75
2021/07/15 06:54:35;;;;;;;26.60;16.83;;;;;;;21.24;72.42;98091.97;4944812;29;20035;-75
2021/07/15 06:57:00;;;;;;;19.48;13.15;;;;;;;21.22;72.09;98077.59;4940894;29;20063;-77
2021/07/15 06:59:26;;;;;;;16.88;10.38;;;;;;;21.23;72.37;98073.63;4942705;29;20098;-77
2021/07/15 07:01:51;;;;;;;15.40;9.52;;;;;;;21.20;72.23;98072.38;4942987;29;20026;-77
2021/07/15 07:04:17;;;;;;;15.93;9.52;;;;;;;21.24;72.34;98084.41;4942804;28;20027;-78
2021/07/15 07:06:43;;;;;;;20.88;9.85;;;;;;;21.23;72.23;98082.00;4941352;29;20038;-77
2021/07/15 07:09:08;;;;;;;16.58;9.70;;;;;;;21.27;72.20;98082.84;4933698;29;20027;-77
2021/07/15 07:11:33;;;;;;;19.75;11.70;;;;;;;21.31;72.19;98086.50;4935250;29;20038;-77
2021/07/15 07:13:59;;;;;;;23.17;13.55;;;;;;;21.35;72.08;98079.00;4944630;29;20034;-78
2021/07/15 07:16:24;;;;;;;21.70;12.73;;;;;;;21.35;72.14;98073.41;4952711;29;20066;-77
2021/07/15 07:18:51;;;;;;;19.58;13.18;;;;;;;21.39;72.18;98077.06;4953502;29;20067;-77
2021/07/15 07:21:16;;;;;;;17.13;11.57;;;;;;;21.41;72.21;98060.72;4954039;29;20031;-77
2021/07/15 07:23:42;;;;;;;17.55;10.80;;;;;;;21.44;72.30;98066.72;4949442;29;20067;-78
2021/07/15 07:26:08;;;;;;;17.88;11.23;;;;;;;21.49;72.40;98069.19;4929834;29;20514;-78
2021/07/15 07:28:34;;;;;;;22.58;13.23;;;;;;;21.54;72.34;98077.22;4944857;29;20034;-77
2021/07/15 07:30:59;;;;;;;22.30;14.50;;;;;;;21.57;72.23;98087.63;4932464;29;20031;-76
2021/07/15 07:33:24;;;;;;;21.92;12.88;;;;;;;21.62;72.62;98087.31;4932953;29;20086;-77
2021/07/15 07:35:50;;;;;;;20.52;12.15;;;;;;;21.68;72.55;98082.19;4928155;29;20028;-77
2021/07/15 07:38:17;;;;;;;20.90;12.70;;;;;;;21.77;72.51;98077.13;4931424;29;20028;-76
2021/07/15 07:40:42;;;;;;;24.45;13.13;;;;;;;21.83;72.49;98085.97;4929464;29;20051;-76
2021/07/15 07:43:08;;;;;;;28.80;13.65;;;;;;;21.88;72.17;98074.44;4932476;29;20027;-77
2021/07/15 07:45:33;;;;;;;28.67;15.02;;;;;;;21.92;72.11;98083.69;4933484;29;20106;-78
2021/07/15 07:48:00;;;;;;;35.88;16.08;;;;;;;21.94;72.18;98081.31;4933531;29;20425;-78
2021/07/15 07:50:26;;;;;;;28.85;16.60;;;;;;;21.96;72.05;98083.72;4931404;29;20050;-77
2021/07/15 07:52:55;;;;;;;36.85;18.48;;;;;;;21.99;72.17;98091.34;4935278;29;20083;-78
2021/07/15 07:55:20;;;;;;;32.45;20.13;;;;;;;22.04;72.34;98112.53;4934216;29;20031;-76
2021/07/15 07:57:46;;;;;;;25.27;17.45;;;;;;;22.08;72.10;98119.75;4932474;29;20392;-76
2021/07/15 08:00:14;;;;;;;30.48;18.73;;;;;;;22.15;72.29;98122.63;4929242;29;20081;-74
2021/07/15 08:02:42;;;;;;;32.00;20.42;;;;;;;22.20;72.27;98135.47;4930939;29;20027;-77
2021/07/15 08:05:08;;;;;;;29.15;18.42;;;;;;;22.20;72.13;98137.44;4933369;29;20079;-79
2021/07/15 08:07:34;;;;;;;29.30;19.23;;;;;;;22.26;72.13;98136.69;4932344;29;20445;-78
2021/07/15 08:10:01;;;;;;;32.33;20.27;;;;;;;22.33;72.08;98149.94;4932506;29;20055;-77
2021/07/15 08:12:26;;;;;;;37.17;23.60;;;;;;;22.36;71.96;98153.97;4931122;28;20060;-76
2021/07/15 08:14:52;;;;;;;33.85;20.48;;;;;;;22.39;72.04;98151.22;4916811;29;20039;-77
2021/07/15 08:17:17;;;;;;;31.25;18.85;;;;;;;22.40;71.87;98155.63;4931572;29;20091;-79
2021/07/15 08:19:42;;;;;;;28.65;19.73;;;;;;;22.45;71.82;98157.28;4933052;29;20075;-78
2021/07/15 08:22:08;;;;;;;34.40;19.25;;;;;;;22.49;71.99;98166.50;4939832;29;20110;-75
2021/07/15 08:24:33;;;;;;;33.83;19.92;;;;;;;22.52;71.82;98167.72;4938600;29;20036;-76
2021/07/15 08:26:59;;;;;;;31.88;19.75;;;;;;;22.56;71.75;98169.38;4930527;29;20035;-77
2021/07/15 08:29:24;;;;;;;33.05;21.17;;;;;;;22.62;71.79;98174.63;4932612;29;20065;-76
2021/07/15 08:31:50;;;;;;;35.70;20.77;;;;;;;22.65;71.79;98179.41;4930366;29;20086;-77
2021/07/15 08:34:15;;;;;;;30.55;19.92;;;;;;;22.63;71.41;98182.59;4930975;29;20027;-78
2021/07/15 08:36:40;;;;;;;30.55;20.75;;;;;;;22.68;71.46;98189.84;4939039;29;20535;-76
2021/07/15 08:39:09;;;;;;;32.33;21.02;;;;;;;22.71;71.65;98192.69;4951275;29;20472;-76
2021/07/15 08:41:35;;;;;;;41.55;25.50;;;;;;;22.77;71.59;98190.31;4933127;29;20031;-76
2021/07/15 08:44:03;;;;;;;39.47;23.67;;;;;;;22.79;71.37;98190.75;4932304;29;20032;-73
2021/07/15 08:46:30;;;;;;;35.78;23.27;;;;;;;22.79;71.25;98196.34;4930950;29;20059;-76
2021/07/15 08:48:55;;;;;;;35.85;22.15;;;;;;;22.81;71.30;98196.75;4930990;29;20031;-74
2021/07/15 08:51:22;;;;;;;38.50;23.05;;;;;;;22.81;71.22;98193.16;4929712;29;20443;-74
2021/07/15 08:53:48;;;;;;;34.92;23.92;;;;;;;22.82;71.21;98198.38;4933125;29;20040;-73
2021/07/15 08:58:59;;;;;;;33.70;20.30;;;;;;;22.76;71.09;98191.50;4934688;29;20170;-75
2021/07/15 09:01:26;;;;;;;36.90;22.17;;;;;;;22.83;71.23;98188.78;4933313;29;20468;-75
2021/07/15 09:03:53;;;;;;;31.77;21.92;;;;;;;22.90;71.71;98193.63;4936297;29;20039;-76
2021/07/15 09:06:19;;;;;;;32.65;22.58;;;;;;;22.95;71.28;98192.50;4934872;29;20455;-75
2021/07/15 09:08:45;;;;;;;35.22;23.00;;;;;;;22.98;71.13;98189.72;4935652;29;20028;-75
2021/07/15 09:11:10;;;;;;;36.92;24.52;;;;;;;23.03;71.11;98191.34;4942975;29;20588;-75
2021/07/15 09:13:35;;;;;;;37.85;24.33;;;;;;;23.12;71.21;98188.22;4948295;29;20032;-76
2021/07/15 09:16:12;;;;;;;36.85;23.75;;;;;;;23.16;71.24;98189.06;4934686;29;20043;-76
2021/07/15 09:18:57;;;;;;;35.60;21.50;;;;;;;23.23;71.08;98188.34;4935540;29;20114;-77
2021/07/15 09:21:28;;;;;;;33.15;20.42;;;;;;;23.30;70.96;98189.19;4933962;29;20046;-76
2021/07/15 09:23:53;;;;;;;32.20;20.83;;;;;;;23.37;70.86;98173.66;4933914;29;20441;-76
2021/07/15 09:26:19;;;;;;;31.50;20.52;;;;;;;23.40;70.69;98182.09;4934554;29;20027;-76
2021/07/15 09:28:44;;;;;;;33.58;20.98;;;;;;;23.48;70.67;98172.50;4935090;29;20463;-73
2021/07/15 09:31:20;;;;;;;32.80;21.45;;;;;;;23.59;70.60;98178.19;4935318;29;20031;-75
2021/07/15 09:33:46;;;;;;;28.63;19.48;;;;;;;23.70;70.75;98175.44;4934163;29;20075;-76
2021/07/15 09:36:17;;;;;;;29.90;19.58;;;;;;;23.80;70.67;98179.50;4935334;29;20252;-74
2021/07/15 09:38:44;;;;;;;25.88;18.08;;;;;;;23.80;70.08;98179.50;4918245;29;20031;-76
2021/07/15 09:41:14;;;;;;;24.08;17.35;;;;;;;23.79;70.01;98175.09;4919067;29;20055;-77
2021/07/15 09:43:41;;;;;;;25.80;17.08;;;;;;;23.85;69.71;98175.50;4936058;29;20452;-78
2021/07/15 09:46:13;;;;;;;23.75;15.68;;;;;;;23.88;69.65;98169.94;4934262;29;20135;-78
2021/07/15 09:49:03;;;;;;;19.27;14.73;;;;;;;23.90;69.59;98175.94;4934733;29;20035;-78
2021/07/15 09:51:46;;;;;;;22.50;15.63;;;;;;;23.98;69.46;98176.00;4922292;29;20063;-78
2021/07/15 09:54:11;;;;;;;23.52;14.30;;;;;;;24.10;69.70;98161.63;4934265;29;20032;-77
2021/07/15 09:56:45;;;;;;;16.23;11.60;;;;;;;24.22;69.59;98168.91;4916216;29;20386;-79
2021/07/15 09:59:10;;;;;;;16.25;11.82;;;;;;;24.33;69.39;98171.72;4933583;29;20035;-75
2021/07/15 10:01:50;;;;;;;22.17;12.57;;;;;;;24.35;69.12;98178.53;4932688;29;20050;-72
2021/07/15 10:04:24;;;;;;;23.17;14.07;;;;;;;24.47;69.22;98179.38;4932676;29;20036;-76
2021/07/15 10:06:51;;;;;;;20.83;14.15;;;;;;;24.56;68.95;98176.19;4929831;29;20047;-76
2021/07/15 10:09:30;;;;;;;20.83;13.15;;;;;;;24.65;68.66;98188.63;4917201;29;20034;-74
2021/07/15 10:11:57;;;;;;;17.13;12.18;;;;;;;24.69;68.17;98180.22;4917079;29;20506;-77
2021/07/15 10:14:41;;;;;;;22.65;12.45;;;;;;;24.74;68.26;98179.84;4951250;29;20126;-76
2021/07/15 10:17:07;;;;;;;21.95;13.80;;;;;;;24.78;67.67;98171.44;4935197;29;20125;-80
2021/07/15 10:19:33;;;;;;;21.75;13.40;;;;;;;24.79;67.46;98176.66;4917076;29;20027;-76
2021/07/15 10:21:59;;;;;;;20.13;14.45;;;;;;;24.84;67.83;98172.63;4933333;29;20038;-74
2021/07/15 10:24:26;;;;;;;23.92;13.32;;;;;;;24.91;67.37;98167.03;4916654;29;20098;-77
2021/07/15 10:26:54;;;;;;;21.85;14.88;;;;;;;24.96;66.91;98168.63;4931977;29;20035;-79
2021/07/15 10:29:20;;;;;;;20.00;13.63;;;;;;;25.01;66.83;98161.84;4931816;29;20035;-79
2021/07/15 10:31:47;;;;;;;22.05;13.73;;;;;;;25.04;66.75;98152.63;4933995;29;20134;-79
2021/07/15 10:34:13;;;;;;;18.60;13.07;;;;;;;25.08;66.81;98159.00;4936052;29;20028;-78
2021/07/15 10:36:40;;;;;;;21.88;13.80;;;;;;;25.10;66.47;98162.22;4932278;29;20059;-80
2021/07/15 10:39:17;;;;;;;19.75;13.00;;;;;;;25.12;65.89;98157.00;4932799;29;20063;-80
2021/07/15 10:41:45;;;;;;;19.90;12.43;;;;;;;25.18;65.95;98161.00;4932064;29;20036;-79
2021/07/15 10:44:11;;;;;;;23.35;13.50;;;;;;;25.26;65.83;98159.03;4932170;29;20035;-77
2021/07/15 10:46:38;;;;;;;20.35;12.90;;;;;;;25.32;65.67;98156.59;4932051;29;20052;-77
2021/07/15 10:49:07;;;;;;;19.20;13.00;;;;;;;25.36;65.27;98151.78;4933382;29;20032;-77
2021/07/15 10:51:34;;;;;;;23.63;14.00;;;;;;;25.45;65.72;98155.00;4930332;29;20028;-80
2021/07/15 10:54:01;;;;;;;20.13;13.63;;;;;;;25.55;65.66;98144.94;4938391;29;20028;-78
2021/07/15 10:56:26;;;;;;;22.30;14.95;;;;;;;25.62;65.67;98144.94;4930797;29;20135;-77
2021/07/15 10:58:53;;;;;;;25.55;16.10;;;;;;;25.71;65.41;98148.09;4931552;29;20024;-78
2021/07/15 11:01:32;;;;;;;21.88;13.30;;;;;;;25.84;65.30;98151.28;4914652;29;20561;-79
2021/07/15 11:04:14;;;;;;;20.95;13.02;;;;;;;25.91;65.25;98152.44;4932077;29;20043;-76
2021/07/15 11:06:46;;;;;;;20.90;13.43;;;;;;;25.93;64.65;98150.00;4914324;29;20027;-75
2021/07/15 11:09:23;;;;;;;25.40;14.88;;;;;;;25.95;64.34;98156.03;4937487;29;20035;-79
2021/07/15 11:11:50;;;;;;;22.08;15.88;;;;;;;25.96;63.92;98150.03;4918090;29;20031;-78
2021/07/15 11:14:39;;;;;;;22.98;13.63;;;;;;;25.98;64.07;98146.78;4931515;29;20039;-77
2021/07/15 11:17:28;;;;;;;22.58;13.15;;;;;;;26.04;63.53;98135.94;4913518;29;20039;-76
2021/07/15 11:19:56;;;;;;;24.13;12.30;;;;;;;26.12;63.63;98143.09;4918836;29;20684;-74
2021/07/15 11:22:46;;;;;;;16.90;12.20;;;;;;;26.16;63.55;98138.31;4931235;29;20035;-79
2021/07/15 11:25:38;;;;;;;17.40;11.65;;;;;;;26.22;63.30;98135.88;4932641;29;20567;-77